createdAt,value
2023-03-16T00:02:22.432Z,13.23
2023-03-16T00:04:49.117Z,13.00
2023-03-16T00:07:15.860Z,8.23
2023-03-16T00:09:42.895Z,8.67
2023-03-16T00:12:19.065Z,8.33
2023-03-16T00:14:48.223Z,12.60
2023-03-16T00:17:20.627Z,9.13
2023-03-16T00:19:55.982Z,10.07
2023-03-16T00:22:25.138Z,9.93
2023-03-16T00:24:52.830Z,11.03
2023-03-16T00:27:22.614Z,8.90
2023-03-16T00:29:55.353Z,6.53
2023-03-16T00:32:27.799Z,9.40
2023-03-16T00:34:54.626Z,9.73
2023-03-16T00:37:23.260Z,9.47
2023-03-16T00:39:50.171Z,6.80
2023-03-16T00:42:18.261Z,7.60
2023-03-16T00:44:45.308Z,9.17
2023-03-16T00:47:15.680Z,8.90
2023-03-16T00:49:43.983Z,9.97
2023-03-16T00:52:16.367Z,11.90
2023-03-16T00:54:44.422Z,8.13
2023-03-16T00:57:13.804Z,10.13
2023-03-16T00:59:41.107Z,11.13
2023-03-16T01:02:08.950Z,9.87
2023-03-16T01:04:36.424Z,9.60
2023-03-16T01:07:04.788Z,11.17
2023-03-16T01:09:36.966Z,10.17
2023-03-16T01:12:06.158Z,8.47
2023-03-16T01:14:37.848Z,5.60
2023-03-16T01:17:08.235Z,7.30
2023-03-16T01:19:36.301Z,7.07
2023-03-16T01:22:04.791Z,6.87
2023-03-16T01:24:32.022Z,5.47
2023-03-16T01:26:58.641Z,7.83
2023-03-16T01:29:25.247Z,5.60
2023-03-16T01:31:52.133Z,10.73
2023-03-16T01:34:18.875Z,6.17
2023-03-16T01:36:48.058Z,8.60
2023-03-16T01:39:14.903Z,7.00
2023-03-16T01:41:42.599Z,4.87
2023-03-16T01:44:28.193Z,8.83
2023-03-16T01:46:54.827Z,5.27
2023-03-16T01:49:33.587Z,8.43
2023-03-16T01:52:05.474Z,5.00
2023-03-16T01:54:48.100Z,7.00
2023-03-16T01:57:20.010Z,5.10
2023-03-16T01:59:54.791Z,5.13
2023-03-16T02:02:25.165Z,3.97
2023-03-16T02:04:58.889Z,6.10
2023-03-16T02:07:28.558Z,4.23
2023-03-16T02:10:00.910Z,4.90
2023-03-16T02:12:28.573Z,5.47
2023-03-16T02:14:55.593Z,8.00
2023-03-16T02:17:26.592Z,4.23
2023-03-16T02:20:37.673Z,8.47
2023-03-16T02:23:07.219Z,4.27
2023-03-16T02:25:52.654Z,6.40
2023-03-16T02:28:35.838Z,6.57
2023-03-16T02:31:03.729Z,4.23
2023-03-16T02:33:32.037Z,6.67
2023-03-16T02:35:58.708Z,6.93
2023-03-16T02:38:25.313Z,3.90
2023-03-16T02:41:06.897Z,4.60
2023-03-16T02:43:35.666Z,3.97
2023-03-16T02:46:05.020Z,5.17
2023-03-16T02:48:46.589Z,6.27
2023-03-16T02:51:13.603Z,5.70
2023-03-16T02:53:40.215Z,5.90
2023-03-16T02:56:07.473Z,4.50
2023-03-16T02:58:34.308Z,3.53
2023-03-16T03:01:01.437Z,5.67
2023-03-16T03:03:28.492Z,6.50
2023-03-16T03:05:55.645Z,4.70
2023-03-16T03:08:23.420Z,4.23
2023-03-16T03:10:50.062Z,8.20
2023-03-16T03:13:17.673Z,5.60
2023-03-16T03:15:45.227Z,7.53
2023-03-16T03:18:11.805Z,4.20
2023-03-16T03:20:38.736Z,4.77
2023-03-16T03:23:05.663Z,5.63
2023-03-16T03:25:34.954Z,4.53
2023-03-16T03:28:05.561Z,5.93
2023-03-16T03:30:32.754Z,5.13
2023-03-16T03:32:59.484Z,6.20
2023-03-16T03:35:26.301Z,5.57
2023-03-16T03:37:53.504Z,4.93
2023-03-16T03:40:21.355Z,5.83
2023-03-16T03:42:48.311Z,3.83
2023-03-16T03:45:16.272Z,6.43
2023-03-16T03:47:44.024Z,5.47
2023-03-16T03:50:12.806Z,6.13
2023-03-16T03:52:39.399Z,5.87
2023-03-16T03:55:06.480Z,4.60
2023-03-16T03:57:33.032Z,6.00
2023-03-16T03:59:59.703Z,5.23
2023-03-16T04:02:26.479Z,5.90
2023-03-16T04:04:53.262Z,4.77
2023-03-16T04:07:20.045Z,6.63
2023-03-16T04:09:47.119Z,6.33
2023-03-16T04:12:13.766Z,7.73
2023-03-16T04:14:40.455Z,4.87
2023-03-16T04:17:07.546Z,7.77
2023-03-16T04:19:34.243Z,4.37
2023-03-16T04:22:00.880Z,5.40
2023-03-16T04:24:27.547Z,5.30
2023-03-16T04:26:54.441Z,4.20
2023-03-16T04:29:21.556Z,5.73
2023-03-16T04:31:48.277Z,5.40
2023-03-16T04:34:15.001Z,7.30
2023-03-16T04:36:42.130Z,4.20
2023-03-16T04:39:09.754Z,6.17
2023-03-16T04:41:36.336Z,5.23
2023-03-16T04:44:04.625Z,5.00
2023-03-16T04:46:31.504Z,4.27
2023-03-16T04:48:58.384Z,6.40
2023-03-16T04:51:25.818Z,6.30
2023-03-16T04:53:52.612Z,5.10
2023-03-16T04:56:19.797Z,5.50
2023-03-16T04:58:48.303Z,5.70
2023-03-16T05:01:15.934Z,4.90
2023-03-16T05:03:43.681Z,5.73
2023-03-16T05:06:11.984Z,4.60
2023-03-16T05:08:38.804Z,5.70
2023-03-16T05:11:05.727Z,7.23
2023-03-16T05:13:32.851Z,3.30
2023-03-16T05:16:00.361Z,5.90
2023-03-16T05:18:27.259Z,8.03
2023-03-16T05:20:58.391Z,6.93
2023-03-16T05:23:25.212Z,7.00
2023-03-16T05:25:51.807Z,8.90
2023-03-16T05:28:18.694Z,4.33
2023-03-16T05:30:45.450Z,6.30
2023-03-16T05:33:12.334Z,5.17
2023-03-16T05:35:39.531Z,6.17
2023-03-16T05:38:06.519Z,7.33
2023-03-16T05:40:33.304Z,8.27
2023-03-16T05:43:00.622Z,5.80
2023-03-16T05:45:27.954Z,7.87
2023-03-16T05:47:54.634Z,5.87
2023-03-16T05:50:21.931Z,5.97
2023-03-16T05:52:48.627Z,4.17
2023-03-16T05:55:17.807Z,5.80
2023-03-16T05:57:44.741Z,8.37
2023-03-16T06:00:19.652Z,7.77
2023-03-16T06:02:48.406Z,5.10
2023-03-16T06:05:16.465Z,6.10
2023-03-16T06:07:43.381Z,4.47
2023-03-16T06:10:11.469Z,4.50
2023-03-16T06:12:38.848Z,6.33
2023-03-16T06:15:07.990Z,6.30
2023-03-16T06:17:36.346Z,5.80
2023-03-16T06:20:05.370Z,5.10
2023-03-16T06:22:32.040Z,5.70
2023-03-16T06:24:58.590Z,7.40
2023-03-16T06:27:26.613Z,5.43
2023-03-16T06:29:53.374Z,3.57
2023-03-16T06:32:20.073Z,7.17
2023-03-16T06:34:46.701Z,4.93
2023-03-16T06:37:13.422Z,5.97
2023-03-16T06:39:40.485Z,5.40
2023-03-16T06:42:07.131Z,3.53
2023-03-16T06:44:33.721Z,6.40
2023-03-16T06:47:01.059Z,7.27
2023-03-16T06:49:28.440Z,5.70
2023-03-16T06:51:55.420Z,5.17
2023-03-16T06:54:22.069Z,4.27
2023-03-16T06:56:49.057Z,5.40
2023-03-16T06:59:15.601Z,4.07
2023-03-16T07:01:42.331Z,4.10
2023-03-16T07:04:09.192Z,5.07
2023-03-16T07:06:35.865Z,5.77
2023-03-16T07:09:04.976Z,6.03
2023-03-16T07:11:32.698Z,5.80
2023-03-16T07:13:59.682Z,4.73
2023-03-16T07:16:26.427Z,4.57
2023-03-16T07:18:53.228Z,5.47
2023-03-16T07:21:20.139Z,3.20
2023-03-16T07:23:46.902Z,4.80
2023-03-16T07:26:14.189Z,5.47
2023-03-16T07:28:41.443Z,5.93
2023-03-16T07:31:09.418Z,4.13
2023-03-16T07:33:36.952Z,4.57
2023-03-16T07:36:04.530Z,4.73
2023-03-16T07:38:32.665Z,5.60
2023-03-16T07:41:02.429Z,4.20
2023-03-16T07:43:29.407Z,4.07
2023-03-16T07:45:56.093Z,4.40
2023-03-16T07:48:22.773Z,4.77
2023-03-16T07:50:50.438Z,5.53
2023-03-16T07:53:18.335Z,4.10
2023-03-16T07:55:44.998Z,4.33
2023-03-16T07:58:12.532Z,3.73
2023-03-16T08:00:39.638Z,4.37
2023-03-16T08:03:06.802Z,4.10
2023-03-16T08:05:33.662Z,5.47
2023-03-16T08:08:01.789Z,3.43
2023-03-16T08:10:29.632Z,4.33
2023-03-16T08:12:56.791Z,5.10
2023-03-16T08:15:24.909Z,3.23
2023-03-16T08:17:52.386Z,3.10
2023-03-16T08:20:19.061Z,4.40
2023-03-16T08:22:46.685Z,5.27
2023-03-16T08:25:15.318Z,3.08
2023-03-16T08:27:42.831Z,4.17
2023-03-16T08:30:12.180Z,5.38
2023-03-16T08:32:40.063Z,5.13
2023-03-16T08:35:13.853Z,3.83
2023-03-16T08:37:41.550Z,6.63
2023-03-16T08:40:10.748Z,4.17
2023-03-16T08:42:41.507Z,3.70
2023-03-16T08:45:14.177Z,4.85
2023-03-16T08:47:41.845Z,5.32
2023-03-16T08:50:10.276Z,3.45
2023-03-16T08:52:37.176Z,6.88
2023-03-16T08:55:05.705Z,5.38
2023-03-16T08:57:33.819Z,3.17
2023-03-16T09:00:01.271Z,3.83
2023-03-16T09:02:27.892Z,3.95
2023-03-16T09:04:54.710Z,4.35
2023-03-16T09:07:21.912Z,4.03
2023-03-16T09:09:48.745Z,6.75
2023-03-16T09:12:15.554Z,4.45
2023-03-16T09:14:42.331Z,5.13
2023-03-16T09:17:09.273Z,5.07
2023-03-16T09:19:53.320Z,3.28
2023-03-16T09:22:21.972Z,3.60
2023-03-16T09:24:49.486Z,3.38
2023-03-16T09:27:16.548Z,4.47
2023-03-16T09:29:43.669Z,2.88
2023-03-16T09:32:10.251Z,3.25
2023-03-16T09:34:37.509Z,3.90
2023-03-16T09:37:05.908Z,3.22
2023-03-16T09:39:32.933Z,3.65
2023-03-16T09:42:29.014Z,4.10
2023-03-16T09:45:05.416Z,2.30
2023-03-16T09:47:35.964Z,2.13
2023-03-16T09:50:07.978Z,2.35
2023-03-16T09:52:46.943Z,2.85
2023-03-16T09:55:28.632Z,2.40
2023-03-16T09:57:57.364Z,3.60
2023-03-16T10:01:02.687Z,3.65
2023-03-16T10:04:00.719Z,2.92
2023-03-16T10:06:28.520Z,3.67
2023-03-16T10:09:13.628Z,3.58
2023-03-16T10:11:53.000Z,5.05
2023-03-16T10:14:35.426Z,2.35
2023-03-16T10:17:13.620Z,3.00
2023-03-16T10:20:10.205Z,2.78
2023-03-16T10:22:43.386Z,2.05
2023-03-16T10:25:34.253Z,5.22
2023-03-16T10:28:01.735Z,3.38
2023-03-16T10:30:32.402Z,8.00
2023-03-16T10:33:05.544Z,3.15
2023-03-16T10:35:50.023Z,2.60
2023-03-16T10:38:42.918Z,3.15
2023-03-16T10:41:19.249Z,3.20
2023-03-16T10:44:15.184Z,5.53
2023-03-16T10:46:54.386Z,2.03
2023-03-16T10:49:41.891Z,4.20
2023-03-16T10:52:31.771Z,3.97
2023-03-16T10:55:18.712Z,3.30
2023-03-16T10:57:53.674Z,4.03
2023-03-16T11:00:23.222Z,3.58
2023-03-16T11:02:51.779Z,3.67
2023-03-16T11:05:18.504Z,6.45
2023-03-16T11:08:09.951Z,2.08
2023-03-16T11:10:54.737Z,2.78
2023-03-16T11:13:22.772Z,1.75
2023-03-16T11:15:57.400Z,1.92
2023-03-16T11:18:43.390Z,2.40
2023-03-16T11:21:18.292Z,3.63
2023-03-16T11:23:55.183Z,3.95
2023-03-16T11:26:33.368Z,3.33
2023-03-16T11:29:09.462Z,4.18
2023-03-16T11:31:49.506Z,2.67
2023-03-16T11:34:19.252Z,2.00
2023-03-16T11:36:55.935Z,2.45
2023-03-16T11:39:33.870Z,2.75
2023-03-16T11:42:13.939Z,2.15
2023-03-16T11:44:50.541Z,4.47
2023-03-16T11:47:43.025Z,2.15
2023-03-16T11:50:34.759Z,3.40
2023-03-16T11:53:32.128Z,3.50
2023-03-16T11:56:37.863Z,1.88
2023-03-16T11:59:21.324Z,4.07
2023-03-16T12:02:12.585Z,1.98
2023-03-16T12:05:04.592Z,2.10
2023-03-16T12:07:43.767Z,1.73
2023-03-16T12:10:50.378Z,3.53
2023-03-16T12:13:38.876Z,3.33
2023-03-16T12:16:23.897Z,4.60
2023-03-16T12:19:00.756Z,2.40
2023-03-16T12:21:35.384Z,2.50
2023-03-16T12:24:07.095Z,3.35
2023-03-16T12:26:39.985Z,2.80
2023-03-16T12:29:41.897Z,2.20
2023-03-16T12:32:38.227Z,3.13
2023-03-16T12:35:16.901Z,2.83
2023-03-16T12:38:18.882Z,3.00
2023-03-16T12:40:59.761Z,2.13
2023-03-16T12:43:47.560Z,3.78
2023-03-16T12:46:24.481Z,3.42
2023-03-16T12:48:57.327Z,2.35
2023-03-16T12:51:36.952Z,3.08
2023-03-16T12:54:05.496Z,3.47
2023-03-16T12:56:35.770Z,3.30
2023-03-16T12:59:05.733Z,3.47
2023-03-16T13:01:42.411Z,2.50
2023-03-16T13:04:13.537Z,2.88
2023-03-16T13:06:45.452Z,3.97
2023-03-16T13:09:16.688Z,2.95
2023-03-16T13:11:50.106Z,6.30
2023-03-16T13:14:36.207Z,2.80
2023-03-16T13:17:18.313Z,3.17
2023-03-16T13:20:01.480Z,3.63
2023-03-16T13:22:31.344Z,3.05
2023-03-16T13:25:26.849Z,3.08
2023-03-16T13:27:55.878Z,2.35
2023-03-16T13:30:32.086Z,3.97
2023-03-16T13:33:18.661Z,2.38
2023-03-16T13:35:46.156Z,3.70
2023-03-16T13:38:16.784Z,2.60
2023-03-16T13:40:51.748Z,4.18
2023-03-16T13:43:22.982Z,2.60
2023-03-16T13:45:49.610Z,3.58
2023-03-16T13:48:18.047Z,3.67
2023-03-16T13:50:51.917Z,3.63
2023-03-16T13:53:25.116Z,3.22
2023-03-16T13:55:53.490Z,3.50
2023-03-16T13:58:34.897Z,3.33
2023-03-16T14:01:04.843Z,3.28
2023-03-16T14:03:35.996Z,2.40
2023-03-16T14:06:03.565Z,3.80
2023-03-16T14:08:31.364Z,3.60
2023-03-16T14:11:01.118Z,4.60
2023-03-16T14:13:28.056Z,3.92
2023-03-16T14:16:01.139Z,4.68
2023-03-16T14:18:41.226Z,6.65
2023-03-16T14:21:13.782Z,4.68
2023-03-16T14:23:50.984Z,3.92
2023-03-16T14:26:19.682Z,4.55
2023-03-16T14:29:03.341Z,4.30
2023-03-16T14:31:39.595Z,5.57
2023-03-16T14:34:21.221Z,4.30
2023-03-16T14:36:48.509Z,4.63
2023-03-16T14:39:20.371Z,3.63
2023-03-16T14:41:53.408Z,2.85
2023-03-16T14:44:23.200Z,3.33
2023-03-16T14:46:49.953Z,3.25
2023-03-16T14:49:35.611Z,3.33
2023-03-16T14:52:12.339Z,4.05
2023-03-16T14:54:38.904Z,3.80
2023-03-16T14:57:05.962Z,4.32
2023-03-16T14:59:33.409Z,3.13
2023-03-16T15:02:03.036Z,2.25
2023-03-16T15:04:34.353Z,4.43
2023-03-16T15:07:04.139Z,3.05
2023-03-16T15:09:40.917Z,5.22
2023-03-16T15:12:16.009Z,2.22
2023-03-16T15:15:01.160Z,3.20
2023-03-16T15:17:27.721Z,3.78
2023-03-16T15:20:23.319Z,3.58
2023-03-16T15:22:52.808Z,2.50
2023-03-16T15:25:24.733Z,3.58
2023-03-16T15:27:52.851Z,3.33
2023-03-16T15:30:24.116Z,3.03
2023-03-16T15:32:50.945Z,3.70
2023-03-16T15:35:18.754Z,3.97
2023-03-16T15:37:45.870Z,3.28
2023-03-16T15:40:24.486Z,2.63
2023-03-16T15:42:51.994Z,1.67
2023-03-16T15:45:21.626Z,1.90
2023-03-16T15:47:53.258Z,2.60
2023-03-16T15:53:43.582Z,2.25
2023-03-16T15:56:14.052Z,2.67
2023-03-16T16:01:49.789Z,2.90
2023-03-16T16:04:26.940Z,2.97
2023-03-16T16:07:14.189Z,3.90
2023-03-16T16:09:44.124Z,3.60
2023-03-16T16:12:17.802Z,1.77
2023-03-16T16:14:51.473Z,2.70
2023-03-16T16:17:43.728Z,1.83
2023-03-16T16:20:23.486Z,2.85
2023-03-16T16:23:02.654Z,2.10
2023-03-16T16:25:37.684Z,1.75
2023-03-16T16:28:33.100Z,4.03
2023-03-16T16:31:01.563Z,1.92
2023-03-16T16:33:35.900Z,1.92
2023-03-16T16:36:05.157Z,1.52
2023-03-16T16:38:32.593Z,1.45
2023-03-16T16:41:07.740Z,1.33
2023-03-16T16:43:43.541Z,2.47
2023-03-16T16:49:20.949Z,1.98
2023-03-16T16:51:48.328Z,2.28
2023-03-16T16:54:28.361Z,2.08
2023-03-16T16:57:15.866Z,2.22
2023-03-16T16:59:45.752Z,1.45
2023-03-16T17:02:38.797Z,1.63
2023-03-16T17:05:06.782Z,3.38
2023-03-16T17:07:33.486Z,1.52
2023-03-16T17:10:00.198Z,1.65
2023-03-16T17:12:28.764Z,3.47
2023-03-16T17:14:55.552Z,3.13
2023-03-16T17:17:22.911Z,1.98
2023-03-16T17:19:50.508Z,3.42
2023-03-16T17:22:26.432Z,4.28
2023-03-16T17:25:00.690Z,1.98
2023-03-16T17:30:26.123Z,2.17
2023-03-16T17:32:54.080Z,2.15
2023-03-16T17:35:21.946Z,2.53
2023-03-16T17:37:49.088Z,1.90
2023-03-16T17:40:21.100Z,2.13
2023-03-16T17:42:49.200Z,3.85
2023-03-16T17:45:21.057Z,3.05
2023-03-16T17:47:50.215Z,2.03
2023-03-16T17:50:21.683Z,2.03
2023-03-16T17:52:48.623Z,2.17
2023-03-16T17:55:20.345Z,2.45
2023-03-16T17:57:56.372Z,3.00
2023-03-16T18:00:29.557Z,1.58
2023-03-16T18:02:58.560Z,2.63
2023-03-16T18:05:28.677Z,3.22
2023-03-16T18:07:59.121Z,2.55
2023-03-16T18:10:29.334Z,3.00
2023-03-16T18:13:01.160Z,3.20
2023-03-16T18:15:31.482Z,2.65
2023-03-16T18:17:59.005Z,2.25
2023-03-16T18:20:33.794Z,1.65
2023-03-16T18:23:03.100Z,3.13
2023-03-16T18:26:40.314Z,2.50
2023-03-16T18:29:08.140Z,2.53
2023-03-16T18:31:35.806Z,3.90
2023-03-16T18:34:44.374Z,2.95
2023-03-16T18:37:28.763Z,1.70
2023-03-16T18:39:56.218Z,2.95
2023-03-16T18:42:34.031Z,2.15
2023-03-16T18:45:01.365Z,2.58
2023-03-16T18:47:33.067Z,1.95
2023-03-16T18:50:00.767Z,1.85
2023-03-16T18:52:38.037Z,4.05
2023-03-16T18:55:16.459Z,2.60
2023-03-16T18:57:49.093Z,5.40
2023-03-16T19:00:30.341Z,2.75
2023-03-16T19:17:20.736Z,2.45
2023-03-16T19:19:48.709Z,2.28
2023-03-16T19:22:27.652Z,3.13
2023-03-16T19:28:03.311Z,3.30
2023-03-16T19:30:42.344Z,1.95
2023-03-16T19:34:00.708Z,2.25
2023-03-16T19:39:20.737Z,1.70
2023-03-16T19:41:54.158Z,1.95
2023-03-16T19:44:23.777Z,1.60
2023-03-16T19:46:51.244Z,2.47
2023-03-16T19:49:20.181Z,2.35
2023-03-16T19:51:49.008Z,2.03
2023-03-16T19:54:27.981Z,3.35
2023-03-16T19:56:57.971Z,3.72
2023-03-16T19:59:28.448Z,2.80
2023-03-16T20:01:55.145Z,2.60
2023-03-16T20:04:24.068Z,2.33
2023-03-16T20:06:51.326Z,2.17
2023-03-16T20:09:18.360Z,1.92
2023-03-16T20:11:46.824Z,4.53
2023-03-16T20:14:43.067Z,2.87
2023-03-16T20:17:12.012Z,3.20
2023-03-16T20:19:39.429Z,2.20
2023-03-16T20:22:17.210Z,2.13
2023-03-16T20:24:44.599Z,2.60
2023-03-16T20:27:12.616Z,3.20
2023-03-16T20:29:39.576Z,2.55
2023-03-16T20:32:15.618Z,2.77
2023-03-16T20:34:42.288Z,2.20
2023-03-16T20:37:29.704Z,2.42
2023-03-16T20:39:59.205Z,3.10
2023-03-16T20:42:32.041Z,3.00
2023-03-16T20:44:59.176Z,2.65
2023-03-16T20:47:27.147Z,1.52
2023-03-16T20:49:57.268Z,1.63
2023-03-16T20:52:27.676Z,2.53
2023-03-16T20:54:55.576Z,1.87
2023-03-16T20:57:25.194Z,2.15
2023-03-16T20:59:54.609Z,2.38
2023-03-16T21:02:34.990Z,2.57
2023-03-16T21:05:04.198Z,2.30
2023-03-16T21:07:31.395Z,2.10
2023-03-16T21:09:58.401Z,2.97
2023-03-16T21:12:33.724Z,2.38
2023-03-16T21:15:04.920Z,2.73
2023-03-16T21:17:34.524Z,3.88
2023-03-16T21:20:01.742Z,3.50
2023-03-16T21:22:34.855Z,3.30
2023-03-16T21:27:45.588Z,2.63
2023-03-16T21:30:39.666Z,3.47
2023-03-16T21:33:23.517Z,3.73
2023-03-16T21:35:53.794Z,2.92
2023-03-16T21:38:21.545Z,2.63
2023-03-16T21:40:48.656Z,4.57
2023-03-16T21:43:16.315Z,3.33
2023-03-16T21:45:44.242Z,3.10
2023-03-16T21:48:16.667Z,3.70
2023-03-16T21:50:44.105Z,2.77
2023-03-16T21:53:20.221Z,2.33
2023-03-16T21:55:47.215Z,2.40
2023-03-16T21:58:14.059Z,3.07
2023-03-16T22:00:41.474Z,3.40
2023-03-16T22:03:25.797Z,2.30
2023-03-16T22:05:53.868Z,2.77
2023-03-16T22:08:38.698Z,3.03
2023-03-16T22:11:15.546Z,2.20
2023-03-16T22:13:42.702Z,2.67
2023-03-16T22:16:15.594Z,2.60
2023-03-16T22:18:43.218Z,3.13
2023-03-16T22:21:20.550Z,2.67
2023-03-16T22:23:47.533Z,2.47
2023-03-16T22:26:17.605Z,2.47
2023-03-16T22:28:46.374Z,3.50
2023-03-16T22:31:16.641Z,4.07
2023-03-16T22:33:45.699Z,3.03
2023-03-16T22:36:16.642Z,2.23
2023-03-16T22:38:44.540Z,2.57
2023-03-16T22:41:14.464Z,3.53
2023-03-16T22:43:43.338Z,4.00
2023-03-16T22:46:20.676Z,4.10
2023-03-16T22:48:47.465Z,3.37
2023-03-16T22:51:29.614Z,2.97
2023-03-16T22:54:02.447Z,2.20
2023-03-16T22:56:30.066Z,2.30
2023-03-16T22:58:59.757Z,2.73
2023-03-16T23:01:42.436Z,3.07
2023-03-16T23:04:20.851Z,3.80
2023-03-16T23:06:51.386Z,2.90
2023-03-16T23:09:20.477Z,2.70
2023-03-16T23:11:53.523Z,2.23
2023-03-16T23:14:22.994Z,3.67
2023-03-16T23:16:55.245Z,3.37
2023-03-16T23:19:34.076Z,3.13
2023-03-16T23:22:03.403Z,3.53
2023-03-16T23:24:30.708Z,2.93
2023-03-16T23:26:57.638Z,2.37
2023-03-16T23:29:26.193Z,3.70
2023-03-16T23:31:53.608Z,2.50
2023-03-16T23:34:22.573Z,3.60
2023-03-16T23:36:49.977Z,2.33
2023-03-16T23:39:17.164Z,2.53
2023-03-16T23:41:46.683Z,3.30
2023-03-16T23:44:21.998Z,2.80
2023-03-16T23:46:48.864Z,3.27
2023-03-16T23:49:25.283Z,2.53
2023-03-16T23:51:52.969Z,2.83
2023-03-16T23:54:23.377Z,3.97
2023-03-16T23:56:50.644Z,2.53
2023-03-16T23:59:19.100Z,3.03
